Time;durP1;ratioP1;P1;durP2;ratioP2;P2;SDS_P1;SDS_P2;PMS_P1;PMS_P2;Temp;Humidity;BMP_temperature;BMP_pressure;BME280_temperature;BME280_humidity;BME280_pressure;Samples;Min_cycle;Max_cycle;Signal;HPM_P1;HPM_P2
2024/03/11 00:22:16;;;;;;;4.70;1.80;;;;;;;-2.39;67.33;101495.98;105046;1290;600286;-65
2024/03/11 00:24:44;;;;;;;3.40;1.60;;;;;;;-2.41;67.47;101498.82;107489;1263;60172;-65
2024/03/11 00:27:12;;;;;;;3.40;1.50;;;;;;;-2.41;67.64;101505.11;107365;1264;59371;-64
2024/03/11 00:29:39;;;;;;;3.80;1.70;;;;;;;-2.41;67.82;101502.91;107422;1266;71285;-65
2024/03/11 00:32:09;;;;;;;4.10;1.80;;;;;;;-2.43;67.68;101507.39;107338;1266;72160;-64
2024/03/11 00:34:39;;;;;;;3.90;1.70;;;;;;;-2.46;68.09;101507.66;107288;1267;72904;-65
2024/03/11 00:37:07;;;;;;;5.60;1.90;;;;;;;-2.44;68.06;101511.36;107373;1267;60462;-64
2024/03/11 00:39:35;;;;;;;4.30;1.70;;;;;;;-2.43;68.11;101512.30;107496;1262;60178;-65
2024/03/11 00:42:03;;;;;;;3.70;1.70;;;;;;;-2.42;68.19;101514.17;107412;1263;71402;-65
2024/03/11 00:44:31;;;;;;;4.30;1.70;;;;;;;-2.43;68.00;101524.36;107535;1263;71609;-65
2024/03/11 00:46:59;;;;;;;3.40;1.80;;;;;;;-2.46;68.19;101527.80;107472;1266;71620;-66
2024/03/11 00:49:27;;;;;;;4.00;1.70;;;;;;;-2.49;68.12;101532.46;107513;1263;60054;-64
2024/03/11 00:51:54;;;;;;;3.90;1.50;;;;;;;-2.52;68.27;101533.61;107490;1263;59563;-65
2024/03/11 00:54:23;;;;;;;3.50;1.70;;;;;;;-2.56;68.48;101542.86;107538;1261;71790;-65
2024/03/11 00:56:51;;;;;;;4.90;1.80;;;;;;;-2.57;68.75;101545.81;107369;1263;70930;-64
2024/03/11 00:59:19;;;;;;;3.40;1.60;;;;;;;-2.59;69.07;101548.23;107982;1255;71160;-65
2024/03/11 01:01:47;;;;;;;4.60;1.60;;;;;;;-2.60;69.16;101546.20;108007;1256;59503;-65
2024/03/11 01:04:15;;;;;;;6.00;1.70;;;;;;;-2.62;69.16;101550.25;107996;1256;59436;-65
2024/03/11 01:06:43;;;;;;;3.90;1.70;;;;;;;-2.66;69.62;101550.92;108057;1256;71845;-65
2024/03/11 01:09:23;;;;;;;3.30;1.40;;;;;;;-2.68;69.94;101552.14;107988;1257;71967;-64
2024/03/11 01:11:50;;;;;;;4.10;1.70;;;;;;;-2.69;70.12;101556.98;107972;1254;71527;-65
2024/03/11 01:14:18;;;;;;;4.10;2.20;;;;;;;-2.70;70.66;101550.84;108114;1254;60388;-64
2024/03/11 01:16:46;;;;;;;3.30;1.60;;;;;;;-2.71;70.81;101550.36;108160;1253;59978;-64
2024/03/11 01:19:18;;;;;;;4.90;2.00;;;;;;;-2.71;71.17;101548.66;108002;1254;72685;-64
2024/03/11 01:21:50;;;;;;;5.30;2.00;;;;;;;-2.72;71.39;101549.30;108035;1254;71907;-64
2024/03/11 01:24:18;;;;;;;3.90;2.00;;;;;;;-2.74;71.44;101551.02;108059;1254;72606;-64
2024/03/11 01:26:47;;;;;;;4.70;1.80;;;;;;;-2.74;71.84;101553.11;107992;1257;61318;-65
2024/03/11 01:29:15;;;;;;;5.40;1.90;;;;;;;-2.75;72.06;101557.91;107861;1256;60291;-65
2024/03/11 01:31:43;;;;;;;4.90;1.90;;;;;;;-2.77;72.48;101556.20;107819;1256;73923;-65
2024/03/11 01:34:11;;;;;;;4.10;1.70;;;;;;;-2.79;72.65;101562.48;107897;1256;71132;-64
2024/03/11 01:36:39;;;;;;;3.50;1.70;;;;;;;-2.81;73.07;101559.07;107915;1256;72706;-64
2024/03/11 01:39:08;;;;;;;4.30;1.70;;;;;;;-2.84;73.41;101564.52;107830;1256;59616;-64
2024/03/11 01:41:36;;;;;;;4.10;1.50;;;;;;;-2.87;73.87;101564.58;107890;1257;60274;-65
2024/03/11 01:44:07;;;;;;;4.70;2.00;;;;;;;-2.89;74.29;101568.30;108011;1255;71888;-65
2024/03/11 01:46:37;;;;;;;4.90;1.90;;;;;;;-2.90;74.50;101571.20;107968;1256;71124;-64
2024/03/11 01:49:05;;;;;;;3.30;1.70;;;;;;;-2.92;75.15;101574.69;107919;1256;72437;-65
2024/03/11 01:51:33;;;;;;;4.60;2.10;;;;;;;-2.94;75.72;101579.06;107925;1259;59477;-65
2024/03/11 01:54:01;;;;;;;4.00;1.90;;;;;;;-2.96;76.27;101578.35;107739;1255;60018;-64
2024/03/11 01:56:28;;;;;;;5.20;2.00;;;;;;;-2.98;76.83;101578.37;107970;1256;71828;-64
2024/03/11 01:59:01;;;;;;;3.30;1.60;;;;;;;-2.99;77.14;101581.65;107898;1256;71434;-64
2024/03/11 02:01:28;;;;;;;4.10;2.10;;;;;;;-3.01;77.59;101583.52;107857;1255;72436;-64
2024/03/11 02:03:59;;;;;;;4.10;2.40;;;;;;;-3.02;78.13;101587.86;107947;1256;60098;-64
2024/03/11 02:06:27;;;;;;;3.90;1.90;;;;;;;-3.04;78.68;101587.69;108021;1256;59411;-64
2024/03/11 02:08:54;;;;;;;4.30;1.70;;;;;;;-3.06;79.25;101589.26;108029;1256;72157;-65
2024/03/11 02:11:24;;;;;;;5.00;2.20;;;;;;;-3.08;79.55;101591.49;107940;1257;72028;-65
2024/03/11 02:13:53;;;;;;;5.00;2.20;;;;;;;-3.10;80.06;101589.23;107957;1256;71390;-68
2024/03/11 02:16:22;;;;;;;4.40;1.80;;;;;;;-3.13;80.63;101588.78;107935;1256;60402;-67
2024/03/11 02:18:51;;;;;;;4.90;2.10;;;;;;;-3.14;81.05;101589.09;107829;1257;59458;-65
2024/03/11 02:21:20;;;;;;;4.90;2.30;;;;;;;-3.15;81.69;101594.82;107962;1255;73020;-64
2024/03/11 02:23:49;;;;;;;5.00;2.10;;;;;;;-3.18;82.19;101602.02;108058;1257;72729;-64
2024/03/11 02:26:19;;;;;;;4.60;1.90;;;;;;;-3.20;82.71;101604.50;108037;1256;72787;-64
2024/03/11 02:28:47;;;;;;;4.70;2.00;;;;;;;-3.22;83.25;101600.11;107954;1256;60531;-64
2024/03/11 02:31:15;;;;;;;5.20;2.40;;;;;;;-3.23;83.88;101601.91;108039;1256;59484;-65
2024/03/11 02:33:42;;;;;;;6.10;2.80;;;;;;;-3.22;84.25;101605.31;108002;1256;71811;-64
2024/03/11 02:36:11;;;;;;;4.20;2.00;;;;;;;-3.23;84.88;101604.39;108016;1256;72464;-64
2024/03/11 02:38:39;;;;;;;4.80;2.40;;;;;;;-3.23;85.37;101606.16;107972;1256;72755;-63
2024/03/11 02:41:07;;;;;;;4.90;2.40;;;;;;;-3.25;85.87;101606.46;107985;1256;60660;-64
2024/03/11 02:43:36;;;;;;;6.20;2.30;;;;;;;-3.26;86.49;101604.68;108056;1256;59582;-64
2024/03/11 02:46:05;;;;;;;4.30;2.00;;;;;;;-3.27;87.29;101607.38;107992;1256;72843;-65
2024/03/11 02:48:32;;;;;;;4.30;2.00;;;;;;;-3.28;87.62;101612.52;108321;1253;71647;-64
2024/03/11 02:51:00;;;;;;;4.10;2.10;;;;;;;-3.29;88.09;101612.57;108297;1252;71429;-64
2024/03/11 02:53:30;;;;;;;4.70;1.90;;;;;;;-3.30;88.63;101614.61;108248;1252;59487;-64
2024/03/11 02:56:02;;;;;;;5.10;1.90;;;;;;;-3.33;89.09;101617.10;108285;1252;60156;-65
2024/03/11 02:58:31;;;;;;;5.70;2.20;;;;;;;-3.35;89.46;101622.86;108197;1252;74567;-64
2024/03/11 03:00:59;;;;;;;5.40;2.30;;;;;;;-3.37;89.80;101620.08;108276;1251;72919;-64
2024/03/11 03:03:27;;;;;;;4.40;2.10;;;;;;;-3.39;90.31;101615.58;108177;1252;73049;-64
2024/03/11 03:05:55;;;;;;;4.50;2.10;;;;;;;-3.40;90.74;101615.31;108206;1253;59596;-66
2024/03/11 03:08:24;;;;;;;4.10;1.80;;;;;;;-3.41;91.32;101614.26;108204;1252;59509;-65
2024/03/11 03:10:52;;;;;;;4.70;1.90;;;;;;;-3.43;91.67;101613.40;108239;1251;73046;-64
2024/03/11 03:13:20;;;;;;;5.60;2.00;;;;;;;-3.45;92.23;101613.89;108201;1257;71621;-64
2024/03/11 03:15:48;;;;;;;4.10;1.80;;;;;;;-3.47;92.84;101615.27;108341;1252;71887;-64
2024/03/11 03:18:16;;;;;;;6.00;2.00;;;;;;;-3.48;93.22;101619.55;108122;1253;61673;-64
2024/03/11 03:20:43;;;;;;;4.30;2.00;;;;;;;-3.48;93.94;101621.46;108206;1253;59733;-64
2024/03/11 03:23:11;;;;;;;4.00;2.10;;;;;;;-3.48;94.60;101614.51;108147;1252;72281;-64
2024/03/11 03:25:39;;;;;;;4.50;2.00;;;;;;;-3.48;95.34;101621.46;108257;1252;72948;-64
2024/03/11 03:28:07;;;;;;;4.20;1.90;;;;;;;-3.48;96.39;101623.24;108194;1253;72457;-64
2024/03/11 03:30:35;;;;;;;4.70;2.20;;;;;;;-3.47;96.92;101622.29;108406;1252;62198;-65
2024/03/11 03:33:04;;;;;;;4.60;1.90;;;;;;;-3.48;97.32;101623.52;108181;1254;59657;-64
2024/03/11 03:35:32;;;;;;;6.00;2.70;;;;;;;-3.48;97.76;101627.70;108196;1252;71861;-65
2024/03/11 03:38:05;;;;;;;5.10;2.50;;;;;;;-3.48;98.19;101631.59;108166;1253;72520;-65
2024/03/11 03:40:34;;;;;;;4.70;2.20;;;;;;;-3.48;98.51;101631.27;108212;1251;72698;-65
2024/03/11 03:43:03;;;;;;;4.60;2.30;;;;;;;-3.48;99.13;101627.63;108186;1253;60123;-65
2024/03/11 03:45:38;;;;;;;6.60;2.80;;;;;;;-3.50;99.66;101628.94;108209;1252;60077;-65
2024/03/11 03:48:10;;;;;;;6.40;2.80;;;;;;;-3.50;99.92;101631.93;108279;1251;73147;-65
2024/03/11 03:50:41;;;;;;;4.60;2.40;;;;;;;-3.51;100.00;101633.45;108302;1251;72494;-63
2024/03/11 03:53:23;;;;;;;4.80;2.30;;;;;;;-3.52;100.00;101635.41;108344;1251;72690;-63
2024/03/11 03:56:13;;;;;;;5.60;2.40;;;;;;;-3.55;100.00;101638.10;108351;1251;60856;-64
2024/03/11 03:58:51;;;;;;;4.80;2.20;;;;;;;-3.57;100.00;101641.88;108242;1251;59559;-63
2024/03/11 04:01:26;;;;;;;5.50;2.20;;;;;;;-3.58;100.00;101640.63;108474;1251;72019;-65
2024/03/11 04:04:01;;;;;;;6.10;2.40;;;;;;;-3.61;100.00;101637.39;108495;1251;71474;-63
2024/03/11 04:06:38;;;;;;;5.30;2.10;;;;;;;-3.62;100.00;101639.77;108486;1251;72448;-64
2024/03/11 04:09:33;;;;;;;4.70;2.10;;;;;;;-3.61;100.00;101638.48;108342;1251;59577;-64
2024/03/11 04:12:16;;;;;;;5.40;2.40;;;;;;;-3.62;100.00;101643.29;108357;1251;59504;-65
2024/03/11 04:14:58;;;;;;;4.20;2.00;;;;;;;-3.61;100.00;101647.30;108372;1251;73707;-64
2024/03/11 04:17:49;;;;;;;4.30;1.90;;;;;;;-3.59;100.00;101648.71;108288;1251;73023;-64
2024/03/11 04:20:29;;;;;;;5.00;2.30;;;;;;;-3.58;100.00;101651.95;108390;1256;71390;-66
2024/03/11 04:23:12;;;;;;;5.80;2.70;;;;;;;-3.57;100.00;101653.05;108466;1251;59567;-65
2024/03/11 04:25:49;;;;;;;5.10;2.20;;;;;;;-3.57;100.00;101653.73;108242;1251;61116;-64
2024/03/11 04:28:28;;;;;;;6.20;2.20;;;;;;;-3.57;100.00;101655.48;108383;1251;73131;-64
2024/03/11 04:31:26;;;;;;;6.40;2.60;;;;;;;-3.55;100.00;101655.48;108349;1253;72895;-64
2024/03/11 04:34:00;;;;;;;4.80;2.10;;;;;;;-3.51;100.00;101659.54;108327;1251;72740;-64
2024/03/11 04:36:42;;;;;;;5.80;2.70;;;;;;;-3.48;100.00;101659.65;108373;1253;60597;-63
2024/03/11 04:39:25;;;;;;;5.30;2.00;;;;;;;-3.46;100.00;101667.12;108367;1251;61926;-64
2024/03/11 04:41:54;;;;;;;4.70;2.10;;;;;;;-3.45;100.00;101670.09;108419;1256;73099;-63
2024/03/11 04:44:23;;;;;;;4.80;2.30;;;;;;;-3.43;100.00;101668.53;108374;1251;71701;-63
2024/03/11 04:47:09;;;;;;;5.70;2.20;;;;;;;-3.40;100.00;101671.09;108364;1251;71618;-63
2024/03/11 04:49:50;;;;;;;4.80;2.20;;;;;;;-3.35;100.00;101671.46;108363;1251;60296;-65
2024/03/11 04:52:37;;;;;;;5.90;2.30;;;;;;;-3.30;100.00;101673.44;108353;1251;60028;-64
2024/03/11 04:55:09;;;;;;;6.30;2.50;;;;;;;-3.26;100.00;101676.23;108384;1251;73276;-65
2024/03/11 04:57:47;;;;;;;4.90;2.30;;;;;;;-3.22;100.00;101675.33;108303;1253;72690;-64
2024/03/11 05:00:18;;;;;;;5.20;2.30;;;;;;;-3.17;100.00;101676.66;108275;1256;72701;-64
2024/03/11 05:02:59;;;;;;;5.60;2.40;;;;;;;-3.12;100.00;101674.09;108238;1252;61672;-63
2024/03/11 05:05:31;;;;;;;6.90;2.60;;;;;;;-3.06;100.00;101674.40;108269;1252;60368;-64
2024/03/11 05:08:09;;;;;;;4.70;2.30;;;;;;;-2.99;100.00;101680.42;108222;1253;72511;-64
2024/03/11 05:10:52;;;;;;;8.00;2.70;;;;;;;-2.93;100.00;101683.68;108269;1252;71947;-64
2024/03/11 05:13:49;;;;;;;4.60;2.40;;;;;;;-2.85;100.00;101686.25;108250;1252;72489;-64
2024/03/11 05:16:22;;;;;;;5.90;2.30;;;;;;;-2.80;100.00;101690.98;108279;1253;60273;-63
2024/03/11 05:18:52;;;;;;;4.90;2.50;;;;;;;-2.73;100.00;101695.99;108300;1253;59090;-66
2024/03/11 05:21:25;;;;;;;6.20;2.70;;;;;;;-2.66;100.00;101697.60;108236;1252;73400;-63
2024/03/11 05:23:56;;;;;;;6.40;2.70;;;;;;;-2.61;100.00;101700.77;108255;1253;73165;-63
2024/03/11 05:26:30;;;;;;;4.80;2.40;;;;;;;-2.54;100.00;101701.00;108279;1252;74562;-62
2024/03/11 05:29:01;;;;;;;5.30;2.70;;;;;;;-2.47;100.00;101699.88;108251;1253;62862;-65
2024/03/11 05:31:31;;;;;;;5.30;2.60;;;;;;;-2.41;100.00;101710.56;108246;1253;60496;-64
2024/03/11 05:34:11;;;;;;;5.10;2.50;;;;;;;-2.33;100.00;101711.99;108246;1252;72667;-65
2024/03/11 05:36:40;;;;;;;6.40;3.00;;;;;;;-2.26;100.00;101717.59;108238;1252;71888;-65
2024/03/11 05:39:10;;;;;;;5.40;3.00;;;;;;;-2.18;100.00;101721.75;108250;1252;75020;-64
2024/03/11 05:41:41;;;;;;;7.10;3.00;;;;;;;-2.12;99.94;101718.30;108252;1252;60333;-63
2024/03/11 05:44:09;;;;;;;5.50;2.80;;;;;;;-2.03;98.53;101717.29;108360;1251;60328;-65
2024/03/11 05:46:39;;;;;;;6.80;2.80;;;;;;;-1.96;97.48;101718.60;108287;1251;72864;-66
2024/03/11 05:49:12;;;;;;;4.50;2.60;;;;;;;-1.90;95.36;101721.30;108296;1251;72723;-65
2024/03/11 05:51:41;;;;;;;5.80;2.40;;;;;;;-1.83;92.94;101721.88;108274;1256;71661;-65
2024/03/11 05:54:17;;;;;;;5.70;2.60;;;;;;;-1.75;91.83;101726.89;108391;1253;60411;-64
2024/03/11 05:56:53;;;;;;;5.70;2.50;;;;;;;-1.66;89.95;101732.48;108306;1251;60415;-63
2024/03/11 05:59:23;;;;;;;4.50;2.20;;;;;;;-1.58;88.26;101732.02;108185;1253;73821;-65
2024/03/11 06:01:52;;;;;;;5.60;2.50;;;;;;;-1.51;86.63;101730.62;108259;1252;71579;-64
2024/03/11 06:04:20;;;;;;;5.00;2.50;;;;;;;-1.42;84.80;101732.56;108448;1252;72675;-64
2024/03/11 06:06:49;;;;;;;5.90;2.50;;;;;;;-1.34;82.17;101737.52;108195;1252;60502;-64
2024/03/11 06:09:16;;;;;;;5.10;2.70;;;;;;;-1.26;81.13;101739.36;108216;1256;60380;-64
2024/03/11 06:11:45;;;;;;;5.70;2.20;;;;;;;-1.18;79.87;101739.51;108210;1253;72607;-65
2024/03/11 06:14:13;;;;;;;5.40;2.50;;;;;;;-1.11;77.11;101744.11;108218;1251;72683;-65
2024/03/11 06:16:47;;;;;;;5.40;2.60;;;;;;;-1.07;74.97;101753.85;108262;1253;72457;-65
2024/03/11 06:19:16;;;;;;;6.50;2.60;;;;;;;-1.02;74.33;101756.06;108251;1253;60544;-64
2024/03/11 06:21:43;;;;;;;7.40;3.20;;;;;;;-0.94;73.97;101759.63;108229;1251;60410;-65
2024/03/11 06:24:12;;;;;;;6.60;3.10;;;;;;;-0.83;73.69;101762.47;108284;1251;73830;-65
2024/03/11 06:26:39;;;;;;;5.10;2.60;;;;;;;-0.74;72.49;101767.79;108402;1251;71232;-65
2024/03/11 06:29:07;;;;;;;6.00;2.80;;;;;;;-0.66;71.88;101770.70;108401;1253;70467;-65
2024/03/11 06:31:37;;;;;;;6.30;3.10;;;;;;;-0.57;70.95;101771.41;108335;1252;60294;-64
2024/03/11 06:34:08;;;;;;;4.30;2.50;;;;;;;-0.48;70.42;101771.14;108332;1253;59018;-66
2024/03/11 06:36:36;;;;;;;5.90;2.90;;;;;;;-0.40;69.19;101770.24;108359;1251;73856;-65
2024/03/11 06:39:03;;;;;;;6.20;3.00;;;;;;;-0.33;68.24;101769.83;108316;1253;71588;-66
2024/03/11 06:41:31;;;;;;;5.70;2.60;;;;;;;-0.27;67.13;101772.16;108276;1251;71250;-66
2024/03/11 06:44:04;;;;;;;7.90;3.20;;;;;;;-0.18;66.52;101774.84;108300;1252;60419;-67
2024/03/11 06:46:33;;;;;;;5.10;3.00;;;;;;;-0.08;65.54;101777.48;108312;1253;60175;-66
2024/03/11 06:49:01;;;;;;;6.40;3.10;;;;;;;-0.01;64.73;101773.87;108152;1252;76915;-64
2024/03/11 06:51:30;;;;;;;6.10;3.20;;;;;;;0.07;64.09;101774.14;108266;1251;74112;-65
2024/03/11 06:54:00;;;;;;;5.90;3.50;;;;;;;0.17;63.79;101779.20;108294;1253;74906;-65
2024/03/11 06:56:30;;;;;;;6.70;3.50;;;;;;;0.26;62.54;101778.84;108264;1252;60468;-65
2024/03/11 06:59:01;;;;;;;7.00;3.80;;;;;;;0.30;61.48;101775.27;108365;1251;60504;-65
2024/03/11 07:01:29;;;;;;;9.30;4.10;;;;;;;0.34;60.79;101777.71;108261;1251;73824;-66
2024/03/11 07:03:57;;;;;;;5.90;3.60;;;;;;;0.36;60.25;101774.83;108290;1256;72926;-68
2024/03/11 07:06:25;;;;;;;6.10;3.40;;;;;;;0.40;59.85;101777.40;108307;1251;71458;-65
2024/03/11 07:08:53;;;;;;;5.50;3.40;;;;;;;0.43;59.59;101776.36;108272;1253;62450;-66
2024/03/11 07:11:21;;;;;;;8.20;3.90;;;;;;;0.48;59.37;101777.79;108377;1251;60421;-65
2024/03/11 07:13:51;;;;;;;7.30;4.10;;;;;;;0.57;58.67;101780.57;108273;1251;76057;-65
2024/03/11 07:16:19;;;;;;;7.60;4.00;;;;;;;0.64;57.78;101783.25;108262;1253;71429;-65
2024/03/11 07:18:50;;;;;;;6.40;3.50;;;;;;;0.71;57.40;101785.33;108337;1253;74955;-65
2024/03/11 07:21:18;;;;;;;6.30;3.70;;;;;;;0.76;56.93;101787.14;108283;1253;59378;-65
2024/03/11 07:23:48;;;;;;;5.90;3.70;;;;;;;0.83;57.08;101786.36;108242;1252;62342;-65
2024/03/11 07:26:16;;;;;;;8.60;3.90;;;;;;;0.94;56.89;101783.08;108268;1253;76112;-66
2024/03/11 07:28:44;;;;;;;7.20;3.80;;;;;;;1.04;56.65;101784.27;108190;1253;75011;-65
2024/03/11 07:31:12;;;;;;;7.50;4.10;;;;;;;1.13;56.21;101782.31;108284;1253;72816;-66
2024/03/11 07:33:40;;;;;;;7.20;4.10;;;;;;;1.22;55.59;101781.92;108315;1253;60408;-67
2024/03/11 07:36:08;;;;;;;7.10;4.00;;;;;;;1.29;55.28;101788.66;108409;1253;61670;-67
2024/03/11 07:38:54;;;;;;;7.50;4.70;;;;;;;1.39;55.27;101787.95;106340;1252;20002772;-67
2024/03/11 07:41:24;;;;;;;6.80;3.90;;;;;;;1.50;54.17;101782.34;93938;1251;10001261;-66
2024/03/11 07:43:52;;;;;;;7.60;4.30;;;;;;;1.53;53.34;101780.64;109110;1251;60933;-65
2024/03/11 07:46:20;;;;;;;7.00;4.00;;;;;;;1.52;52.74;101786.16;108900;1253;72574;-66
2024/03/11 07:48:48;;;;;;;6.60;4.00;;;;;;;1.54;52.27;101788.00;108391;1253;72268;-66
2024/03/11 07:51:16;;;;;;;7.10;4.10;;;;;;;1.59;51.70;101790.10;108084;1253;74726;-67
2024/03/11 07:53:44;;;;;;;6.30;3.60;;;;;;;1.67;51.41;101791.07;108126;1252;59723;-65
2024/03/11 07:56:12;;;;;;;6.20;4.10;;;;;;;1.75;51.17;101792.96;108168;1253;61475;-65
2024/03/11 07:58:39;;;;;;;5.70;3.30;;;;;;;1.83;51.32;101795.19;108133;1253;74161;-65
2024/03/11 08:01:07;;;;;;;5.30;3.30;;;;;;;1.96;50.40;101799.20;108284;1253;75529;-65
2024/03/11 08:03:35;;;;;;;5.10;3.50;;;;;;;2.06;49.46;101796.13;108186;1251;74851;-67
2024/03/11 08:06:04;;;;;;;5.90;3.70;;;;;;;2.17;49.27;101790.44;108776;1253;61579;-66
2024/03/11 08:08:31;;;;;;;6.50;3.40;;;;;;;2.27;48.70;101789.86;108227;1254;60435;-65
2024/03/11 08:11:00;;;;;;;6.30;3.80;;;;;;;2.35;47.85;101787.45;108155;1252;71875;-67
2024/03/11 08:13:28;;;;;;;5.40;3.30;;;;;;;2.43;47.85;101783.41;108182;1251;74930;-66
2024/03/11 08:15:56;;;;;;;6.90;4.40;;;;;;;2.53;47.94;101785.41;108061;1253;75032;-66
2024/03/11 08:18:24;;;;;;;7.50;3.90;;;;;;;2.62;48.10;101781.10;108324;1252;61636;-65
2024/03/11 08:20:52;;;;;;;7.10;3.80;;;;;;;2.65;47.07;101783.34;108834;1251;62668;-67
2024/03/11 08:23:20;;;;;;;7.00;3.90;;;;;;;2.64;46.71;101780.73;108270;1251;74356;-66
2024/03/11 08:25:49;;;;;;;6.50;3.50;;;;;;;2.61;46.31;101781.41;108222;1253;75013;-67
2024/03/11 08:28:17;;;;;;;5.90;3.30;;;;;;;2.62;46.13;101781.34;108422;1253;74883;-66
2024/03/11 08:30:45;;;;;;;6.00;3.20;;;;;;;2.64;45.80;101777.04;108229;1253;60671;-66
2024/03/11 08:33:15;;;;;;;6.00;3.30;;;;;;;2.73;45.68;101774.56;108263;1253;62161;-67
2024/03/11 08:35:44;;;;;;;5.90;3.30;;;;;;;2.86;44.82;101775.08;108227;1251;75273;-70
2024/03/11 08:38:13;;;;;;;5.80;3.10;;;;;;;2.91;44.55;101775.50;108159;1254;73265;-66
2024/03/11 08:40:41;;;;;;;5.70;3.40;;;;;;;2.93;44.00;101772.48;108191;1252;74845;-65
2024/03/11 08:43:09;;;;;;;5.90;3.10;;;;;;;2.92;43.51;101772.06;108182;1251;61844;-66
2024/03/11 08:45:41;;;;;;;5.20;3.40;;;;;;;2.93;43.53;101773.67;108473;1251;60168;-66
2024/03/11 08:48:10;;;;;;;5.30;3.10;;;;;;;3.00;43.70;101773.34;108289;1253;72401;-65
2024/03/11 08:50:38;;;;;;;5.90;3.60;;;;;;;3.13;43.42;101772.06;108076;1252;73227;-65
2024/03/11 08:53:08;;;;;;;5.20;3.10;;;;;;;3.21;42.55;101770.60;108124;1251;74874;-68
2024/03/11 08:55:37;;;;;;;5.10;3.40;;;;;;;3.22;42.05;101770.17;108077;1254;60285;-67
2024/03/11 08:58:05;;;;;;;6.70;3.30;;;;;;;3.22;42.23;101771.05;108240;1253;60413;-65
2024/03/11 09:00:36;;;;;;;4.90;3.20;;;;;;;3.20;41.96;101773.06;108707;1251;76080;-65
2024/03/11 09:03:05;;;;;;;7.30;3.60;;;;;;;3.22;42.63;101776.67;108342;1251;74706;-66
2024/03/11 09:05:33;;;;;;;5.40;2.90;;;;;;;3.32;42.57;101775.52;108232;1256;74935;-66
2024/03/11 09:08:04;;;;;;;4.80;2.80;;;;;;;3.40;42.14;101779.69;108110;1256;60275;-66
2024/03/11 09:10:32;;;;;;;6.60;3.50;;;;;;;3.45;42.04;101777.12;108303;1250;60427;-66
2024/03/11 09:12:59;;;;;;;5.30;3.20;;;;;;;3.49;41.39;101781.61;108274;1250;76158;-68
2024/03/11 09:15:28;;;;;;;5.90;3.20;;;;;;;3.52;41.39;101781.05;108189;1250;74033;-67
2024/03/11 09:17:56;;;;;;;5.70;3.10;;;;;;;3.60;41.30;101779.86;108198;1256;74805;-66
2024/03/11 09:20:27;;;;;;;5.00;3.40;;;;;;;3.65;41.02;101776.40;108430;1250;61501;-65
2024/03/11 09:22:59;;;;;;;6.40;3.30;;;;;;;3.70;41.27;101772.21;108207;1251;62224;-65
2024/03/11 09:25:27;;;;;;;5.80;3.30;;;;;;;3.82;41.35;101762.74;108460;1251;74694;-64
2024/03/11 09:28:02;;;;;;;4.90;3.40;;;;;;;3.89;40.82;101763.33;108150;1250;73399;-66
2024/03/11 09:30:35;;;;;;;6.60;3.30;;;;;;;3.95;41.42;101767.02;108176;1250;73624;-65
2024/03/11 09:33:11;;;;;;;6.80;3.30;;;;;;;4.09;40.89;101766.48;108165;1256;59072;-64
2024/03/11 09:35:40;;;;;;;6.20;3.30;;;;;;;4.13;40.41;101760.95;108154;1250;61106;-64
2024/03/11 09:38:09;;;;;;;7.70;3.70;;;;;;;4.09;40.53;101758.26;108158;1250;74765;-65
2024/03/11 09:40:37;;;;;;;5.80;3.40;;;;;;;4.11;40.63;101757.95;108273;1250;73994;-65
2024/03/11 09:43:05;;;;;;;7.10;4.20;;;;;;;4.16;40.48;101752.19;108150;1250;74916;-64
2024/03/11 09:45:34;;;;;;;6.00;3.50;;;;;;;4.20;40.45;101750.48;108184;1250;60656;-65
2024/03/11 09:48:04;;;;;;;5.50;3.40;;;;;;;4.23;40.67;101751.17;108107;1250;60570;-66
2024/03/11 09:50:35;;;;;;;6.20;3.70;;;;;;;4.31;40.45;101747.77;108189;1251;74153;-65
2024/03/11 09:53:06;;;;;;;5.20;3.20;;;;;;;4.37;40.65;101747.10;108180;1250;73178;-64
2024/03/11 09:55:35;;;;;;;6.20;3.90;;;;;;;4.52;40.39;101744.49;108182;1251;74813;-65
2024/03/11 09:58:10;;;;;;;6.20;3.40;;;;;;;4.56;39.94;101734.11;108187;1253;60510;-65
2024/03/11 10:00:50;;;;;;;6.10;3.50;;;;;;;4.54;40.19;101735.00;108182;1253;60518;-65
2024/03/11 10:03:21;;;;;;;6.20;3.60;;;;;;;4.61;39.79;101731.73;108103;1253;76078;-65
2024/03/11 10:05:57;;;;;;;7.00;3.70;;;;;;;4.64;39.59;101729.35;108164;1250;75423;-65
2024/03/11 10:08:30;;;;;;;7.00;3.50;;;;;;;4.61;39.56;101728.15;108204;1251;73214;-66
2024/03/11 10:11:20;;;;;;;6.10;3.50;;;;;;;4.60;39.69;101726.72;108162;1253;60375;-66
2024/03/11 10:13:53;;;;;;;6.80;3.90;;;;;;;4.55;39.59;101723.84;108186;1250;60666;-66
2024/03/11 10:16:27;;;;;;;7.50;3.80;;;;;;;4.46;39.45;101724.95;108198;1255;76100;-66
2024/03/11 10:19:05;;;;;;;5.50;3.30;;;;;;;4.43;39.44;101720.23;108298;1250;75027;-66
2024/03/11 10:21:33;;;;;;;5.70;3.20;;;;;;;4.43;39.47;101717.13;108231;1250;73796;-65
2024/03/11 10:24:14;;;;;;;5.10;3.30;;;;;;;4.48;39.58;101715.85;108151;1253;60361;-67
2024/03/11 10:26:45;;;;;;;5.70;3.30;;;;;;;4.56;39.53;101716.66;108218;1250;62142;-65
2024/03/11 10:29:29;;;;;;;5.30;3.20;;;;;;;4.68;39.55;101717.59;108215;1250;76417;-67
2024/03/11 10:31:58;;;;;;;5.20;3.20;;;;;;;4.87;39.06;101713.52;108213;1250;74849;-67
2024/03/11 10:34:28;;;;;;;4.90;2.90;;;;;;;4.93;38.45;101708.16;108230;1253;74906;-65
2024/03/11 10:36:59;;;;;;;5.10;2.60;;;;;;;4.93;38.13;101713.41;108233;1252;62094;-65
2024/03/11 10:39:40;;;;;;;5.10;2.60;;;;;;;5.03;38.01;101710.96;108156;1251;60408;-65
2024/03/11 10:42:14;;;;;;;4.50;2.70;;;;;;;5.21;37.34;101710.81;108165;1253;75809;-67
2024/03/11 10:44:45;;;;;;;4.50;2.60;;;;;;;5.29;37.21;101700.94;108151;1250;75077;-66
2024/03/11 10:47:18;;;;;;;6.80;2.90;;;;;;;5.32;37.23;101700.08;108187;1254;72027;-65
2024/03/11 10:49:50;;;;;;;5.00;2.90;;;;;;;5.38;36.98;101697.36;108234;1250;60428;-65
2024/03/11 10:52:22;;;;;;;;;;;;;;;5.49;36.69;101696.40;108095;1250;62214;-66
2024/03/11 10:54:54;;;;;;;4.60;2.90;;;;;;;5.60;36.42;101691.86;108148;1250;74039;-66
2024/03/11 10:57:34;;;;;;;5.00;2.30;;;;;;;5.65;35.11;101687.73;108059;1256;75036;-66
2024/03/11 11:00:11;;;;;;;5.80;3.10;;;;;;;5.62;35.08;101687.62;108142;1253;74968;-66
2024/03/11 11:02:41;;;;;;;4.40;2.70;;;;;;;5.61;35.40;101687.59;108120;1251;59652;-66
2024/03/11 11:05:09;;;;;;;4.20;2.40;;;;;;;5.64;35.30;101684.62;108087;1253;60483;-66
2024/03/11 11:07:36;;;;;;;5.30;2.30;;;;;;;5.62;35.06;101679.27;107900;1250;73013;-68
2024/03/11 11:10:11;;;;;;;5.40;2.50;;;;;;;5.54;34.94;101683.19;108283;1250;73212;-66
2024/03/11 11:12:39;;;;;;;5.30;2.90;;;;;;;5.54;35.46;101688.16;108145;1251;74889;-65
2024/03/11 11:15:07;;;;;;;4.90;2.70;;;;;;;5.61;35.40;101683.02;108191;1251;61443;-65
2024/03/11 11:17:38;;;;;;;4.10;2.60;;;;;;;5.63;35.32;101681.48;108087;1251;60963;-67
2024/03/11 11:22:57;;;;;;;5.10;2.80;;;;;;;5.60;35.60;101679.41;108243;1251;72580;-65
2024/03/11 11:25:41;;;;;;;4.70;2.60;;;;;;;5.71;35.70;101677.15;108257;1256;73030;-65
2024/03/11 11:28:13;;;;;;;4.50;2.60;;;;;;;5.72;35.19;101673.11;108309;1253;60296;-65
2024/03/11 11:30:44;;;;;;;4.60;2.70;;;;;;;5.77;34.74;101671.39;108202;1253;62246;-68
2024/03/11 11:33:33;;;;;;;4.60;2.90;;;;;;;5.82;34.53;101674.92;108374;1251;76045;-67
2024/03/11 11:36:03;;;;;;;5.90;2.70;;;;;;;5.84;34.47;101666.52;108279;1250;74955;-65
2024/03/11 11:38:34;;;;;;;4.60;2.40;;;;;;;5.88;34.64;101664.29;108319;1251;72241;-65
2024/03/11 11:41:31;;;;;;;4.00;2.30;;;;;;;5.89;34.04;101662.95;108303;1254;61630;-66
2024/03/11 11:44:00;;;;;;;5.80;2.50;;;;;;;5.87;34.32;101661.39;108190;1250;60199;-65
2024/03/11 11:46:46;;;;;;;4.90;2.40;;;;;;;5.90;34.49;101659.41;108456;1251;72385;-65
2024/03/11 11:49:18;;;;;;;5.00;2.40;;;;;;;5.93;34.01;101656.95;108347;1250;75762;-65
2024/03/11 11:51:54;;;;;;;5.90;3.10;;;;;;;5.98;34.07;101653.99;108073;1251;73751;-68
2024/03/11 11:54:26;;;;;;;4.40;2.50;;;;;;;6.02;33.57;101647.45;108337;1253;61453;-66
2024/03/11 11:57:14;;;;;;;4.40;2.10;;;;;;;6.05;33.68;101649.44;108298;1251;60540;-65
2024/03/11 11:59:55;;;;;;;5.10;2.50;;;;;;;6.12;33.83;101646.29;108351;1254;74040;-66
2024/03/11 12:02:31;;;;;;;4.60;2.60;;;;;;;6.18;33.36;101641.55;108308;1250;75460;-67